createdAt,value
2023-03-29T00:02:30.492Z,95391.44
2023-03-29T00:05:04.663Z,95396.13
2023-03-29T00:07:33.530Z,95394.72
2023-03-29T00:10:02.593Z,95393.91
2023-03-29T00:12:29.858Z,95389.41
2023-03-29T00:14:57.138Z,95392.06
2023-03-29T00:17:24.366Z,95383.09
2023-03-29T00:19:51.364Z,95389.63
2023-03-29T00:22:18.607Z,95390.66
2023-03-29T00:24:47.742Z,95389.84
2023-03-29T00:27:17.839Z,95392.72
2023-03-29T00:29:44.856Z,95395.38
2023-03-29T00:32:11.888Z,95394.53
2023-03-29T00:34:39.098Z,95393.75
2023-03-29T00:37:08.914Z,95388.66
2023-03-29T00:39:36.835Z,95391.09
2023-03-29T00:42:05.120Z,95400.06
2023-03-29T00:44:57.102Z,95395.78
2023-03-29T00:47:52.422Z,95387.22
2023-03-29T00:50:41.503Z,95385.59
2023-03-29T00:53:29.722Z,95377.25
2023-03-29T00:56:19.735Z,95379.09
2023-03-29T00:59:01.408Z,95379.09
2023-03-29T01:02:14.155Z,95371.63
2023-03-29T01:04:46.176Z,95368.16
2023-03-29T01:07:28.297Z,95365.13
2023-03-29T01:10:04.820Z,95360.44
2023-03-29T01:12:36.181Z,95350.88
2023-03-29T01:15:10.408Z,95346.38
2023-03-29T01:17:40.595Z,95349.03
2023-03-29T01:20:23.493Z,95351.09
2023-03-29T01:23:03.664Z,95349.25
2023-03-29T01:25:59.650Z,95348.44
2023-03-29T01:28:48.601Z,95342.78
2023-03-29T01:31:26.212Z,95344.59
2023-03-29T01:34:02.502Z,95342.97
2023-03-29T01:36:41.609Z,95337.25
2023-03-29T01:39:08.817Z,95331.38
2023-03-29T01:42:14.960Z,95340.94
2023-03-29T01:45:29.412Z,95343.19
2023-03-29T01:48:17.319Z,95340.97
2023-03-29T01:51:07.318Z,95341.16
2023-03-29T01:53:48.322Z,95346.28
2023-03-29T01:56:22.855Z,95344.66
2023-03-29T01:58:57.077Z,95347.28
2023-03-29T02:01:29.865Z,95352.34
2023-03-29T02:04:03.010Z,95345.44
2023-03-29T02:06:34.263Z,95358.66
2023-03-29T02:09:01.650Z,95349.94
2023-03-29T02:11:29.390Z,95343.81
2023-03-29T02:13:57.699Z,95344.03
2023-03-29T02:16:24.702Z,95342.22
2023-03-29T02:18:54.154Z,95346.47
2023-03-29T02:22:04.075Z,95347.50
2023-03-29T02:24:33.843Z,95342.63
2023-03-29T02:27:01.337Z,95343.22
2023-03-29T02:29:28.614Z,95340.00
2023-03-29T02:32:33.272Z,95327.00
2023-03-29T02:35:16.701Z,95331.66
2023-03-29T02:37:49.462Z,95331.44
2023-03-29T02:40:17.553Z,95328.00
2023-03-29T02:42:46.072Z,95330.44
2023-03-29T02:45:17.210Z,95314.78
2023-03-29T02:47:53.098Z,95325.59
2023-03-29T02:50:21.311Z,95321.88
2023-03-29T02:52:56.098Z,95322.72
2023-03-29T02:55:26.421Z,95324.75
2023-03-29T02:57:53.435Z,95317.66
2023-03-29T03:00:20.567Z,95318.66
2023-03-29T03:02:48.578Z,95316.81
2023-03-29T03:05:15.907Z,95313.59
2023-03-29T03:07:43.681Z,95309.91
2023-03-29T03:10:11.072Z,95322.94
2023-03-29T03:12:38.579Z,95316.25
2023-03-29T03:15:07.074Z,95319.69
2023-03-29T03:17:40.186Z,95315.41
2023-03-29T03:20:13.200Z,95309.53
2023-03-29T03:22:49.309Z,95313.78
2023-03-29T03:25:19.594Z,95307.72
2023-03-29T03:27:49.122Z,95301.59
2023-03-29T03:30:18.895Z,95298.38
2023-03-29T03:33:04.640Z,95296.75
2023-03-29T03:36:06.673Z,95290.63
2023-03-29T03:38:37.772Z,95277.63
2023-03-29T03:41:07.187Z,95275.81
2023-03-29T03:43:35.041Z,95268.09
2023-03-29T03:46:02.693Z,95280.06
2023-03-29T03:48:30.511Z,95275.81
2023-03-29T03:51:18.367Z,95272.56
2023-03-29T03:53:45.794Z,95276.00
2023-03-29T03:56:13.457Z,95285.78
2023-03-29T03:58:58.988Z,95286.00
2023-03-29T04:01:28.084Z,95283.38
2023-03-29T04:04:12.435Z,95287.03
2023-03-29T04:06:43.793Z,95296.59
2023-03-29T04:09:33.420Z,95293.09
2023-03-29T04:12:22.862Z,95289.06
2023-03-29T04:14:50.848Z,95288.25
2023-03-29T04:17:24.320Z,95289.06
2023-03-29T04:20:13.578Z,95285.00
2023-03-29T04:22:41.823Z,95281.56
2023-03-29T04:25:11.608Z,95290.31
2023-03-29T04:27:49.790Z,95272.03
2023-03-29T04:30:35.906Z,95271.00
2023-03-29T04:33:13.089Z,95269.38
2023-03-29T04:35:43.691Z,95265.72
2023-03-29T04:38:14.861Z,95258.81
2023-03-29T04:40:44.196Z,95258.81
2023-03-29T04:43:24.515Z,95255.34
2023-03-29T04:46:00.891Z,95260.03
2023-03-29T04:49:00.469Z,95261.06
2023-03-29T04:51:37.160Z,95258.41
2023-03-29T04:54:05.840Z,95261.06
2023-03-29T04:56:46.243Z,95265.53
2023-03-29T04:59:35.023Z,95254.94
2023-03-29T05:02:07.401Z,95255.78
2023-03-29T05:04:35.695Z,95253.13
2023-03-29T05:07:09.197Z,95265.53
2023-03-29T05:09:36.430Z,95254.94
2023-03-29T05:12:05.302Z,95269.00
2023-03-29T05:14:44.893Z,95269.78
2023-03-29T05:17:12.268Z,95264.72
2023-03-29T05:19:39.546Z,95268.16
2023-03-29T05:22:09.042Z,95270.00
2023-03-29T05:24:37.437Z,95270.63
2023-03-29T05:27:11.800Z,95270.00
2023-03-29T05:29:39.967Z,95269.00
2023-03-29T05:32:22.293Z,95269.78
2023-03-29T05:34:50.236Z,95267.16
2023-03-29T05:37:17.793Z,95259.22
2023-03-29T05:39:53.268Z,95255.97
2023-03-29T05:42:33.421Z,95254.16
2023-03-29T05:45:07.246Z,95256.78
2023-03-29T05:47:34.481Z,95255.78
2023-03-29T05:50:01.538Z,95260.03
2023-03-29T05:52:28.619Z,95260.84
2023-03-29T05:54:56.685Z,95264.09
2023-03-29T05:57:23.944Z,95264.28
2023-03-29T05:59:51.262Z,95260.03
2023-03-29T06:02:18.877Z,95265.09
2023-03-29T06:04:51.790Z,95256.34
2023-03-29T06:07:25.611Z,95262.47
2023-03-29T06:10:16.092Z,95254.53
2023-03-29T06:12:49.473Z,95248.44
2023-03-29T06:15:18.412Z,95257.56
2023-03-29T06:17:58.077Z,95266.50
2023-03-29T06:20:25.394Z,95257.56
2023-03-29T06:22:59.000Z,95262.03
2023-03-29T06:25:26.820Z,95265.50
2023-03-29T06:27:54.151Z,95267.91
2023-03-29T06:30:21.360Z,95269.75
2023-03-29T06:32:52.294Z,95266.28
2023-03-29T06:35:51.782Z,95268.94
2023-03-29T06:38:26.771Z,95269.75
2023-03-29T06:41:07.967Z,95266.09
2023-03-29T06:44:13.765Z,95267.31
2023-03-29T06:46:55.742Z,95263.66
2023-03-29T06:49:24.006Z,95270.56
2023-03-29T06:52:23.251Z,95264.66
2023-03-29T06:54:51.630Z,95262.63
2023-03-29T06:57:18.874Z,95265.28
2023-03-29T06:59:47.341Z,95271.16
2023-03-29T07:02:23.946Z,95266.09
2023-03-29T07:04:56.149Z,95265.88
2023-03-29T07:07:37.429Z,95268.31
2023-03-29T07:10:15.326Z,95264.88
2023-03-29T07:13:17.910Z,95275.44
2023-03-29T07:15:45.728Z,95271.75
2023-03-29T07:18:31.244Z,95270.72
2023-03-29T07:20:58.278Z,95269.72
2023-03-29T07:23:25.538Z,95266.84
2023-03-29T07:25:52.562Z,95269.28
2023-03-29T07:28:20.618Z,95264.00
2023-03-29T07:30:47.970Z,95271.94
2023-03-29T07:33:21.217Z,95274.38
2023-03-29T07:35:59.176Z,95283.91
2023-03-29T07:38:27.215Z,95273.94
2023-03-29T07:41:06.651Z,95272.09
2023-03-29T07:43:39.751Z,95276.59
2023-03-29T07:46:09.999Z,95267.63
2023-03-29T07:48:38.390Z,95276.94
2023-03-29T07:51:08.366Z,95285.47
2023-03-29T07:53:45.987Z,95271.66
2023-03-29T07:56:31.361Z,95274.13
2023-03-29T07:59:13.434Z,95277.34
2023-03-29T08:01:43.321Z,95276.31
2023-03-29T08:04:33.127Z,95272.03
2023-03-29T08:07:19.338Z,95273.66
2023-03-29T08:10:05.165Z,95275.28
2023-03-29T08:12:49.897Z,95272.66
2023-03-29T08:15:19.666Z,95284.44
2023-03-29T08:17:46.737Z,95276.50
2023-03-29T08:20:18.661Z,95276.06
2023-03-29T08:22:48.913Z,95275.03
2023-03-29T08:25:42.500Z,95265.25
2023-03-29T08:28:10.779Z,95274.81
2023-03-29T08:30:45.747Z,95270.13
2023-03-29T08:33:13.524Z,95278.69
2023-03-29T08:35:41.651Z,95273.16
2023-03-29T08:38:31.079Z,95275.59
2023-03-29T08:40:58.376Z,95279.06
2023-03-29T08:43:52.949Z,95280.66
2023-03-29T08:46:46.584Z,95286.78
2023-03-29T08:49:26.215Z,95278.84
2023-03-29T08:52:00.055Z,95279.22
2023-03-29T08:54:47.429Z,95272.31
2023-03-29T08:57:53.719Z,95265.38
2023-03-29T09:01:08.638Z,95270.69
2023-03-29T09:04:09.771Z,95273.94
2023-03-29T09:06:52.983Z,95273.94
2023-03-29T09:09:34.968Z,95262.31
2023-03-29T09:12:42.945Z,95261.50
2023-03-29T09:15:30.994Z,95261.50
2023-03-29T09:18:35.968Z,95263.13
2023-03-29T09:21:33.796Z,95270.03
2023-03-29T09:24:25.166Z,95256.22
2023-03-29T09:27:59.296Z,95265.53
2023-03-29T09:30:42.792Z,95257.84
2023-03-29T09:33:42.983Z,95253.16
2023-03-29T09:36:45.380Z,95252.31
2023-03-29T09:39:16.267Z,95251.09
2023-03-29T09:41:56.257Z,95252.72
2023-03-29T09:44:48.454Z,95253.75
2023-03-29T09:47:37.891Z,95248.25
2023-03-29T09:50:32.365Z,95248.84
2023-03-29T09:53:03.137Z,95248.84
2023-03-29T09:55:36.369Z,95260.03
2023-03-29T09:58:27.787Z,95247.81
2023-03-29T10:01:00.855Z,95251.88
2023-03-29T10:03:31.300Z,95246.56
2023-03-29T10:06:10.938Z,95244.53
2023-03-29T10:08:50.812Z,95251.44
2023-03-29T10:11:35.144Z,95248.56
2023-03-29T10:14:11.602Z,95235.34
2023-03-29T10:16:42.120Z,95235.72
2023-03-29T10:19:37.333Z,95240.22
2023-03-29T10:22:12.269Z,95235.50
2023-03-29T10:24:39.417Z,95238.75
2023-03-29T10:27:11.743Z,95231.59
2023-03-29T10:29:43.083Z,95228.53
2023-03-29T10:32:23.474Z,95227.50
2023-03-29T10:34:52.245Z,95214.50
2023-03-29T10:37:21.249Z,95209.78
2023-03-29T10:39:49.984Z,95210.63
2023-03-29T10:42:20.284Z,95208.53
2023-03-29T10:44:56.726Z,95201.66
2023-03-29T10:47:25.082Z,95200.41
2023-03-29T10:49:57.174Z,95197.75
2023-03-29T10:52:25.754Z,95200.16
2023-03-29T10:54:56.774Z,95196.50
2023-03-29T10:58:04.320Z,95189.59
2023-03-29T11:00:52.421Z,95186.94
2023-03-29T11:04:04.097Z,95181.41
2023-03-29T11:06:39.049Z,95184.66
2023-03-29T11:09:55.601Z,95181.19
2023-03-29T11:12:37.871Z,95184.66
2023-03-29T11:15:42.679Z,95183.84
2023-03-29T11:18:47.021Z,95176.13
2023-03-29T11:21:33.500Z,95173.25
2023-03-29T11:24:38.768Z,95178.34
2023-03-29T11:27:49.029Z,95158.19
2023-03-29T11:30:55.658Z,95155.56
2023-03-29T11:33:46.128Z,95155.56
2023-03-29T11:36:51.894Z,95150.63
2023-03-29T11:39:28.904Z,95127.25
2023-03-29T11:42:09.477Z,95138.78
2023-03-29T11:44:38.443Z,95133.03
2023-03-29T11:47:20.914Z,95130.75
2023-03-29T11:49:57.643Z,95134.59
2023-03-29T11:52:43.663Z,95130.47
2023-03-29T11:55:26.557Z,95123.91
2023-03-29T11:58:39.123Z,95121.19
2023-03-29T12:01:17.081Z,95121.78
2023-03-29T12:03:58.273Z,95115.22
2023-03-29T12:06:51.169Z,95119.84
2023-03-29T12:09:32.443Z,95115.72
2023-03-29T12:12:27.191Z,95111.81
2023-03-29T12:15:20.293Z,95116.66
2023-03-29T12:18:07.404Z,95108.50
2023-03-29T12:20:39.565Z,95112.31
2023-03-29T12:23:14.858Z,95095.38
2023-03-29T12:26:04.516Z,95102.66
2023-03-29T12:29:08.316Z,95090.78
2023-03-29T12:32:14.850Z,95096.09
2023-03-29T12:35:16.196Z,95097.47
2023-03-29T12:38:19.296Z,95088.50
2023-03-29T12:41:21.904Z,95081.94
2023-03-29T12:44:23.589Z,95081.72
2023-03-29T12:46:59.764Z,95080.28
2023-03-29T12:49:39.129Z,95074.13
2023-03-29T12:52:32.621Z,95081.06
2023-03-29T12:55:04.471Z,95074.13
2023-03-29T12:57:45.179Z,95074.72
2023-03-29T13:05:04.877Z,95071.56
2023-03-29T13:07:47.053Z,95068.47
2023-03-29T13:10:42.513Z,95064.00
2023-03-29T13:13:18.057Z,95062.13
2023-03-29T13:15:46.240Z,95060.06
2023-03-29T13:18:43.337Z,95050.28
2023-03-29T13:21:19.602Z,95055.38
2023-03-29T13:24:23.070Z,95043.72
2023-03-29T13:27:37.582Z,95052.03
2023-03-29T13:30:22.760Z,95041.00
2023-03-29T13:32:58.466Z,95046.41
2023-03-29T13:36:06.836Z,95037.66
2023-03-29T13:38:49.758Z,95029.47
2023-03-29T13:41:46.979Z,95021.28
2023-03-29T13:44:46.189Z,95029.81
2023-03-29T13:47:41.791Z,95017.94
2023-03-29T13:50:19.305Z,95024.97
2023-03-29T13:53:26.707Z,95016.25
2023-03-29T13:55:55.066Z,95021.31
2023-03-29T13:58:38.252Z,95020.03
2023-03-29T14:01:45.903Z,95020.25
2023-03-29T14:04:22.114Z,95012.06
2023-03-29T14:06:54.160Z,95013.69
2023-03-29T14:09:32.165Z,95019.56
2023-03-29T14:12:01.283Z,95015.06
2023-03-29T14:14:32.114Z,95009.53
2023-03-29T14:17:01.391Z,95014.59
2023-03-29T14:19:36.809Z,95011.16
2023-03-29T14:22:10.836Z,95011.16
2023-03-29T14:24:41.018Z,95018.06
2023-03-29T14:27:12.122Z,95014.38
2023-03-29T14:29:39.324Z,95014.38
2023-03-29T14:32:18.570Z,95005.59
2023-03-29T14:34:50.430Z,95006.63
2023-03-29T14:37:44.326Z,94995.00
2023-03-29T14:40:19.620Z,94996.63
2023-03-29T14:42:48.695Z,94998.00
2023-03-29T14:45:18.107Z,94993.28
2023-03-29T14:47:47.361Z,94996.84
2023-03-29T14:50:24.602Z,94997.19
2023-03-29T14:52:52.608Z,94988.31
2023-03-29T14:55:23.666Z,94993.72
2023-03-29T14:57:55.128Z,94985.84
2023-03-29T15:00:44.633Z,94982.25
2023-03-29T15:03:16.960Z,94976.59
2023-03-29T15:05:51.059Z,94986.84
2023-03-29T15:08:54.351Z,94984.53
2023-03-29T15:11:30.660Z,94974.47
2023-03-29T15:14:09.020Z,94981.16
2023-03-29T15:16:42.690Z,94975.03
2023-03-29T15:19:20.574Z,94966.28
2023-03-29T15:21:51.486Z,94973.00
2023-03-29T15:24:48.108Z,94967.44
2023-03-29T15:27:18.906Z,94970.34
2023-03-29T15:29:47.383Z,94965.84
2023-03-29T15:32:23.959Z,94966.84
2023-03-29T15:35:04.950Z,94957.25
2023-03-29T15:37:32.568Z,94949.78
2023-03-29T15:40:00.013Z,94950.59
2023-03-29T15:42:27.206Z,94949.78
2023-03-29T15:44:56.292Z,94949.22
2023-03-29T15:47:24.406Z,94949.22
2023-03-29T15:49:51.814Z,94953.16
2023-03-29T15:52:18.918Z,94954.19
2023-03-29T15:54:46.314Z,94955.22
2023-03-29T15:57:16.035Z,94957.88
2023-03-29T15:59:44.503Z,94960.19
2023-03-29T16:02:23.385Z,94955.94
2023-03-29T16:04:51.417Z,94956.16
2023-03-29T16:07:19.778Z,94950.88
2023-03-29T16:09:47.290Z,94945.78
2023-03-29T16:12:16.262Z,94957.44
2023-03-29T16:14:43.453Z,94961.97
2023-03-29T16:17:10.887Z,94953.19
2023-03-29T16:19:38.027Z,94953.41
2023-03-29T16:22:07.261Z,94954.47
2023-03-29T16:24:35.491Z,94956.06
2023-03-29T16:27:03.114Z,94952.63
2023-03-29T16:29:31.121Z,94960.81
2023-03-29T16:31:59.137Z,94944.34
2023-03-29T16:34:26.769Z,94942.72
2023-03-29T16:36:54.182Z,94948.81
2023-03-29T16:39:21.599Z,94955.16
2023-03-29T16:41:50.055Z,94949.84
2023-03-29T16:44:23.574Z,94949.31
2023-03-29T16:46:54.110Z,94941.59
2023-03-29T16:49:21.567Z,94946.91
2023-03-29T16:51:49.012Z,94959.34
2023-03-29T16:54:17.462Z,94957.50
2023-03-29T16:56:44.930Z,94948.97
2023-03-29T16:59:12.218Z,94950.00
2023-03-29T17:01:40.604Z,94947.59
2023-03-29T17:04:08.834Z,94943.91
2023-03-29T17:06:36.194Z,94945.97
2023-03-29T17:09:05.031Z,94942.50
2023-03-29T17:11:32.544Z,94942.75
2023-03-29T17:14:00.139Z,94939.31
2023-03-29T17:16:29.207Z,94945.41
2023-03-29T17:19:00.410Z,94948.28
2023-03-29T17:21:29.223Z,94952.56
2023-03-29T17:23:56.504Z,94955.44
2023-03-29T17:26:23.884Z,94958.09
2023-03-29T17:28:51.043Z,94960.19
2023-03-29T17:31:19.348Z,94965.72
2023-03-29T17:33:47.588Z,94965.72
2023-03-29T17:36:14.906Z,94965.94
2023-03-29T17:38:42.814Z,94972.06
2023-03-29T17:41:10.106Z,94966.97
2023-03-29T17:43:37.389Z,94972.28
2023-03-29T17:46:05.375Z,94976.78
2023-03-29T17:48:32.907Z,94979.66
2023-03-29T17:51:00.121Z,94988.66
2023-03-29T17:53:27.685Z,94986.81
2023-03-29T17:55:54.601Z,94983.34
2023-03-29T17:58:21.832Z,94987.84
2023-03-29T18:00:49.265Z,94996.84
2023-03-29T18:03:16.694Z,94996.28
2023-03-29T18:05:44.001Z,94998.94
2023-03-29T18:08:13.154Z,95001.56
2023-03-29T18:10:40.734Z,95002.59
2023-03-29T18:13:11.201Z,94997.56
2023-03-29T18:15:38.428Z,95003.09
2023-03-29T18:18:05.490Z,95002.84
2023-03-29T18:20:32.867Z,95004.91
2023-03-29T18:23:00.172Z,95004.69
2023-03-29T18:25:27.908Z,95002.50
2023-03-29T18:27:55.320Z,95007.81
2023-03-29T18:30:22.620Z,95005.94
2023-03-29T18:32:49.916Z,95006.97
2023-03-29T18:35:16.994Z,95008.03
2023-03-29T18:37:43.950Z,95012.53
2023-03-29T18:40:11.661Z,95015.19
2023-03-29T18:42:38.823Z,95016.22
2023-03-29T18:45:06.734Z,95011.16
2023-03-29T18:47:33.764Z,95006.09
2023-03-29T18:50:02.400Z,95005.25
2023-03-29T18:52:29.592Z,95007.34
2023-03-29T18:54:56.780Z,95011.84
2023-03-29T18:57:23.766Z,95008.38
2023-03-29T18:59:51.210Z,95004.13
2023-03-29T19:02:18.294Z,95019.22
2023-03-29T19:04:46.173Z,95006.19
2023-03-29T19:07:13.331Z,95008.84
2023-03-29T19:09:41.765Z,95009.06
2023-03-29T19:12:09.256Z,95009.06
2023-03-29T19:14:36.696Z,95005.63
2023-03-29T19:17:03.939Z,95012.75
2023-03-29T19:19:31.234Z,95013.78
2023-03-29T19:22:00.551Z,95016.69
2023-03-29T19:24:28.034Z,95014.28
2023-03-29T19:26:56.497Z,95018.53
2023-03-29T19:29:24.005Z,95021.41
2023-03-29T19:31:51.902Z,95029.34
2023-03-29T19:34:23.710Z,95017.59
2023-03-29T19:36:53.495Z,95019.47
2023-03-29T19:39:21.573Z,95016.81
2023-03-29T19:41:48.763Z,95020.50
2023-03-29T19:44:16.026Z,95018.88
2023-03-29T19:46:43.160Z,95019.13
2023-03-29T19:49:13.490Z,95013.00
2023-03-29T19:51:42.105Z,95007.69
2023-03-29T19:54:12.065Z,95011.38
2023-03-29T19:56:39.044Z,95008.72
2023-03-29T19:59:06.306Z,95008.16
2023-03-29T20:01:33.869Z,94998.34
2023-03-29T20:04:02.451Z,94997.78
2023-03-29T20:06:29.608Z,94995.94
2023-03-29T20:08:57.802Z,94994.31
2023-03-29T20:11:24.885Z,94991.09
2023-03-29T20:13:51.901Z,94987.41
2023-03-29T20:16:19.349Z,94991.91
2023-03-29T20:18:46.743Z,94982.34
2023-03-29T20:21:16.694Z,94979.94
2023-03-29T20:23:44.679Z,94974.84
2023-03-29T20:26:12.984Z,94973.81
2023-03-29T20:28:40.583Z,94977.50
2023-03-29T20:31:10.998Z,94975.88
2023-03-29T20:33:39.119Z,94970.78
2023-03-29T20:36:06.627Z,94979.59
2023-03-29T20:38:35.677Z,94970.78
2023-03-29T20:41:05.159Z,94978.97
2023-03-29T20:43:37.699Z,94977.34
2023-03-29T20:46:05.910Z,94976.56
2023-03-29T20:48:33.076Z,94977.34
2023-03-29T20:51:02.926Z,94980.47
2023-03-29T20:53:34.119Z,94986.34
2023-03-29T20:56:01.400Z,94979.66
2023-03-29T20:58:29.087Z,94979.41
2023-03-29T21:00:58.736Z,94972.75
2023-03-29T21:03:26.005Z,94969.31
2023-03-29T21:05:58.205Z,94965.03
2023-03-29T21:08:28.972Z,94967.69
2023-03-29T21:10:56.247Z,94961.00
2023-03-29T21:13:23.661Z,94956.50
2023-03-29T21:15:51.170Z,94957.31
2023-03-29T21:18:18.404Z,94951.44
2023-03-29T21:20:46.192Z,94953.06
2023-03-29T21:23:13.976Z,94950.66
2023-03-29T21:25:40.985Z,94947.16
2023-03-29T21:28:08.431Z,94948.00
2023-03-29T21:30:35.467Z,94943.72
2023-03-29T21:33:02.898Z,94947.41
2023-03-29T21:35:33.238Z,94936.22
2023-03-29T21:38:01.401Z,94937.25
2023-03-29T21:40:28.441Z,94938.31
2023-03-29T21:42:55.403Z,94937.84
2023-03-29T21:45:22.433Z,94935.69
2023-03-29T21:47:49.751Z,94936.47
2023-03-29T21:50:17.178Z,94928.75
2023-03-29T21:52:44.604Z,94924.72
2023-03-29T21:55:12.242Z,94925.28
2023-03-29T21:57:39.205Z,94924.72
2023-03-29T22:00:12.778Z,94919.63
2023-03-29T22:02:40.649Z,94922.28
2023-03-29T22:05:08.233Z,94925.97
2023-03-29T22:07:38.739Z,94918.25
2023-03-29T22:10:09.432Z,94911.34
2023-03-29T22:12:37.371Z,94915.84
2023-03-29T22:15:11.498Z,94915.84
2023-03-29T22:17:38.691Z,94915.06
2023-03-29T22:20:18.452Z,94908.94
2023-03-29T22:22:50.823Z,94903.66
2023-03-29T22:25:19.385Z,94902.59
2023-03-29T22:27:49.006Z,94907.31
2023-03-29T22:30:17.330Z,94904.47
2023-03-29T22:32:44.588Z,94909.97
2023-03-29T22:35:11.695Z,94909.19
2023-03-29T22:37:45.743Z,94908.59
2023-03-29T22:40:13.542Z,94903.28
2023-03-29T22:42:40.690Z,94902.25
2023-03-29T22:45:08.937Z,94904.31
2023-03-29T22:47:36.067Z,94907.78
2023-03-29T22:50:03.466Z,94908.81
2023-03-29T22:52:30.661Z,94913.28
2023-03-29T22:54:57.960Z,94901.13
2023-03-29T22:57:25.452Z,94888.69
2023-03-29T22:59:52.712Z,94886.25
2023-03-29T23:02:20.006Z,94900.28
2023-03-29T23:04:47.543Z,94890.75
2023-03-29T23:07:14.711Z,94886.25
2023-03-29T23:09:42.161Z,94891.78
2023-03-29T23:12:09.719Z,94886.72
2023-03-29T23:14:37.554Z,94888.91
2023-03-29T23:17:04.727Z,94879.34
2023-03-29T23:19:31.770Z,94865.53
2023-03-29T23:21:58.952Z,94860.47
2023-03-29T23:24:25.843Z,94858.84
2023-03-29T23:26:53.258Z,94846.44
2023-03-29T23:29:20.322Z,94850.91
2023-03-29T23:31:47.802Z,94849.31
2023-03-29T23:34:15.185Z,94849.31
2023-03-29T23:36:42.444Z,94856.44
2023-03-29T23:39:09.929Z,94861.75
2023-03-29T23:41:40.065Z,94856.69
2023-03-29T23:44:07.732Z,94854.25
2023-03-29T23:46:35.035Z,94860.38
2023-03-29T23:49:02.157Z,94852.63
2023-03-29T23:51:29.602Z,94852.41
2023-03-29T23:53:56.883Z,94860.38
2023-03-29T23:56:24.296Z,94851.84
2023-03-29T23:58:51.747Z,94851.03
